Frenchboro, ME (04635)

12:20 AM EST on December 25, 2014 (GMT -0500)
Goose Pond Rd | Change Station
CLOSE
Current Station
Personal Weather Station
Location: Swan's Island, ME
Elevation: 92 ft
Nearby Weather Stations

Elev 92 ft 44.16 °N, 68.42 °W | Updated 7 seconds ago

Overcast
Overcast
54.4 °F
Feels Like 54.4 °F
N
7.0
Wind Variable Wind from SE
Gusts 17.0 mph

Today
High -- | Low -- °F
--% Chance of Precip.
Yesterday
High -- | Low -- °F
Precip. -- in
7:07 AM 4:00 PM
Waxing Crescent, 13% visible
Pressure 29.59 in
Visibility 5.0 miles
Clouds Overcast 400 ft
Dew Point Not available.
Humidity Not available.
Rainfall 0.00 in
Snow Depth Not available.
UV 0 out of 12
Pollen .10 out of 12
Air Quality Not available.
Flu Activity Not available.
METAR KBHB 250515Z AUTO 19016G23KT 5SM OVC004 13/13 A2959 RMK AO1 P0002

More Conditions Fewer Conditions

Pressure 29.59 in
Visibility 5.0 miles
Clouds Overcast 400 ft
Dew Point Not available.
Humidity Not available.
Rainfall 0.00 in
Snow Depth Not available.
UV 0 out of 12
Pollen .10 out of 12
Air Quality Not available.
Flu Activity Not available.
METAR KBHB 250515Z AUTO 19016G23KT 5SM OVC004 13/13 A2959 RMK AO1 P0002

More Conditions Fewer Conditions

10-Day Weather Forecast

Almanac

Astronomy

Dec. 25, 2014 Rise Set
Actual Time
Civil Twilight
Nautical Twilight
Astronomical Twilight
Moon
Length of Visible Light
Length of Day
Tomorrow will be .
, % of the Moon is Illuminated

Today's Extremes

State Highs State Lows

Community

WunderPhotos

Upload Photos

1,780,244 photos uploaded!

WunderBlogs® & News

Nearby

Air Quality

  Air Quality AQ Index Pollutant
Not available.

Snow Depth

Station Depth Elevation

Earthquake Activity

City Distance Mag. Time & Date
Minimum magnitude displayed is 2.5.

Coastal Water Temperatures

Place Temperature

Nearby Weather Stations